Time;durP1;ratioP1;P1;durP2;ratioP2;P2;SDS_P1;SDS_P2;PMS_P1;PMS_P2;Temp;Humidity;BMP_temperature;BMP_pressure;BME280_temperature;BME280_humidity;BME280_pressure;Samples;Min_cycle;Max_cycle;Signal;HPM_P1;HPM_P2
2021/11/01 00:01:10;;;;;;;13.02;10.05;;;;;;;;;;4936326;29;20058;-77
2021/11/01 00:04:15;;;;;;;14.13;10.00;;;;;;;;;;4936624;29;20507;-77
2021/11/01 00:07:19;;;;;;;13.18;9.80;;;;;;;;;;4936271;29;20416;-77
2021/11/01 00:10:23;;;;;;;14.63;9.65;;;;;;;;;;4936490;29;20233;-77
2021/11/01 00:13:27;;;;;;;13.77;10.10;;;;;;;;;;4935620;29;20415;-77
2021/11/01 00:16:33;;;;;;;12.73;9.55;;;;;;;;;;4936264;29;20047;-77
2021/11/01 00:19:37;;;;;;;16.77;9.85;;;;;;;;;;4936346;29;20040;-77
2021/11/01 00:22:41;;;;;;;14.88;9.40;;;;;;;;;;4935458;29;20139;-77
2021/11/01 00:25:47;;;;;;;12.20;9.25;;;;;;;;;;4935996;29;20063;-77
2021/11/01 00:28:51;;;;;;;10.52;8.50;;;;;;;;;;4936279;29;20392;-77
2021/11/01 00:31:55;;;;;;;12.90;10.05;;;;;;;;;;4934801;29;20060;-77
2021/11/01 00:35:00;;;;;;;14.05;9.82;;;;;;;;;;4936080;29;20098;-77
2021/11/01 00:38:06;;;;;;;12.50;9.55;;;;;;;;;;4936486;29;20044;-77
2021/11/01 00:41:10;;;;;;;10.77;8.68;;;;;;;;;;4934876;29;20040;-77
2021/11/01 00:44:14;;;;;;;15.50;9.73;;;;;;;;;;4924163;29;20050;-77
2021/11/01 00:47:19;;;;;;;13.50;9.63;;;;;;;;;;4935607;29;20035;-77
2021/11/01 00:50:23;;;;;;;11.15;8.63;;;;;;;;;;4935411;29;20044;-76
2021/11/01 00:53:31;;;;;;;17.52;10.02;;;;;;;;;;4935850;29;20056;-77
2021/11/01 00:56:39;;;;;;;14.48;10.88;;;;;;;;;;4935296;29;20129;-77
2021/11/01 00:59:44;;;;;;;15.43;11.18;;;;;;;;;;4935618;29;20632;-78
2021/11/01 01:02:48;;;;;;;16.17;11.15;;;;;;;;;;4935582;29;20047;-77
2021/11/01 01:05:57;;;;;;;16.75;11.88;;;;;;;;;;4935413;29;20098;-77
2021/11/01 01:09:02;;;;;;;21.60;16.90;;;;;;;;;;4935449;29;20038;-78
2021/11/01 01:12:08;;;;;;;27.90;20.20;;;;;;;;;;4935140;29;20062;-77
2021/11/01 01:15:19;;;;;;;24.63;16.63;;;;;;;;;;4934252;29;20035;-77
2021/11/01 01:18:28;;;;;;;25.17;18.30;;;;;;;;;;4935362;29;20194;-77
2021/11/01 01:24:58;;;;;;;37.75;27.45;;;;;;;;;;4934571;29;20050;-77
2021/11/01 01:28:07;;;;;;;41.83;29.23;;;;;;;;;;4935071;29;20058;-77
2021/11/01 01:31:14;;;;;;;41.97;27.15;;;;;;;;;;4934735;29;20047;-77
2021/11/01 01:34:19;;;;;;;38.15;27.85;;;;;;;;;;4935335;29;20051;-77
2021/11/01 01:37:23;;;;;;;36.63;26.27;;;;;;;;;;4934921;29;20116;-77
2021/11/01 01:40:28;;;;;;;38.72;26.25;;;;;;;;;;4934727;29;20052;-78
2021/11/01 01:43:32;;;;;;;33.10;23.33;;;;;;;;;;4934711;29;20054;-78
2021/11/01 01:46:37;;;;;;;32.58;23.17;;;;;;;;;;4934731;29;20050;-77
2021/11/01 01:49:41;;;;;;;33.45;22.13;;;;;;;;;;4934586;29;20396;-77
2021/11/01 01:52:49;;;;;;;28.75;22.00;;;;;;;;;;4934420;29;20404;-78
2021/11/01 01:55:53;;;;;;;35.30;23.85;;;;;;;;;;4922488;29;20038;-77
2021/11/01 01:58:59;;;;;;;37.13;24.48;;;;;;;;;;4934328;29;20519;-77
2021/11/01 02:02:04;;;;;;;31.92;24.13;;;;;;;;;;4933567;29;20046;-78
2021/11/01 02:05:09;;;;;;;35.33;25.13;;;;;;;;;;4934246;29;20046;-78
2021/11/01 02:08:15;;;;;;;35.00;25.73;;;;;;;;;;4934353;29;20047;-77
2021/11/01 02:11:23;;;;;;;32.85;24.52;;;;;;;;;;4934223;29;20078;-78
2021/11/01 02:14:29;;;;;;;35.03;26.48;;;;;;;;;;4934392;29;20415;-77
2021/11/01 02:17:34;;;;;;;35.65;25.35;;;;;;;;;;4934082;29;20046;-78
2021/11/01 02:20:44;;;;;;;37.53;26.33;;;;;;;;;;4934221;29;20050;-78
2021/11/01 02:23:59;;;;;;;41.00;28.20;;;;;;;;;;4934280;29;20058;-77
2021/11/01 02:27:06;;;;;;;40.70;28.17;;;;;;;;;;4934071;29;20299;-78
2021/11/01 02:30:11;;;;;;;38.65;28.58;;;;;;;;;;4933901;29;20059;-77
2021/11/01 02:33:17;;;;;;;41.58;29.52;;;;;;;;;;4934028;29;20066;-77
2021/11/01 02:36:21;;;;;;;36.95;29.00;;;;;;;;;;4933969;29;20051;-78
2021/11/01 02:39:26;;;;;;;37.80;29.05;;;;;;;;;;4934049;29;20059;-78
2021/11/01 02:42:31;;;;;;;46.00;33.25;;;;;;;;;;4933925;29;20051;-78
2021/11/01 02:45:35;;;;;;;41.85;32.15;;;;;;;;;;4934005;29;20055;-77
2021/11/01 02:48:40;;;;;;;41.38;29.85;;;;;;;;;;4933995;29;20046;-78
2021/11/01 02:51:44;;;;;;;34.60;27.33;;;;;;;;;;4933754;29;20554;-77
2021/11/01 02:54:50;;;;;;;38.60;25.00;;;;;;;;;;4933046;29;20051;-78
2021/11/01 02:57:54;;;;;;;27.13;22.48;;;;;;;;;;4937042;29;20043;-77
2021/11/01 03:00:58;;;;;;;32.60;23.77;;;;;;;;;;4937680;29;20043;-78
2021/11/01 03:04:03;;;;;;;33.90;23.20;;;;;;;;;;4948018;29;20055;-78
2021/11/01 03:07:07;;;;;;;28.90;22.10;;;;;;;;;;4937755;29;20051;-78
2021/11/01 03:10:12;;;;;;;32.85;21.88;;;;;;;;;;4937514;29;20433;-78
2021/11/01 03:13:17;;;;;;;32.50;22.60;;;;;;;;;;4937366;29;20054;-77
2021/11/01 03:16:22;;;;;;;30.85;23.35;;;;;;;;;;4937599;29;20047;-78
2021/11/01 03:19:29;;;;;;;36.92;25.42;;;;;;;;;;4937192;29;20047;-77
2021/11/01 03:22:38;;;;;;;35.38;25.95;;;;;;;;;;4937443;29;20503;-77
2021/11/01 03:25:49;;;;;;;36.25;27.10;;;;;;;;;;4937096;29;20063;-78
2021/11/01 03:28:58;;;;;;;39.95;28.45;;;;;;;;;;4937371;29;20063;-77
2021/11/01 03:32:04;;;;;;;39.67;29.52;;;;;;;;;;4937055;29;20051;-77
2021/11/01 03:35:09;;;;;;;43.28;31.25;;;;;;;;;;4937083;29;20059;-77
2021/11/01 03:38:14;;;;;;;39.55;29.90;;;;;;;;;;4937035;29;20082;-78
2021/11/01 03:41:19;;;;;;;40.58;30.15;;;;;;;;;;4936936;29;20039;-78
2021/11/01 03:44:29;;;;;;;41.08;29.42;;;;;;;;;;4936801;29;20507;-78
2021/11/01 03:47:38;;;;;;;39.20;29.58;;;;;;;;;;4937249;29;20043;-78
2021/11/01 03:50:47;;;;;;;39.10;29.48;;;;;;;;;;4935881;29;20055;-77
2021/11/01 03:53:52;;;;;;;37.20;28.88;;;;;;;;;;4936887;29;20058;-77
2021/11/01 03:56:57;;;;;;;41.30;29.90;;;;;;;;;;4936601;29;20331;-77
2021/11/01 04:00:05;;;;;;;39.33;28.98;;;;;;;;;;4936455;29;20080;-78
2021/11/01 04:03:12;;;;;;;37.40;27.77;;;;;;;;;;4936420;29;20054;-77
2021/11/01 04:06:19;;;;;;;41.35;28.40;;;;;;;;;;4936634;29;20042;-78
2021/11/01 04:09:23;;;;;;;38.00;28.17;;;;;;;;;;4936236;29;20070;-77
2021/11/01 04:12:28;;;;;;;39.97;27.17;;;;;;;;;;4936578;29;20055;-77
2021/11/01 04:15:37;;;;;;;34.28;27.00;;;;;;;;;;4936415;29;20046;-77
2021/11/01 04:19:01;;;;;;;35.85;27.30;;;;;;;;;;4935312;29;20490;-77
2021/11/01 04:22:05;;;;;;;37.88;26.90;;;;;;;;;;4936202;29;20050;-78
2021/11/01 04:25:11;;;;;;;35.58;25.48;;;;;;;;;;4936539;29;20498;-77
2021/11/01 04:28:15;;;;;;;34.22;25.17;;;;;;;;;;4936244;29;20396;-77
2021/11/01 04:31:28;;;;;;;33.85;25.10;;;;;;;;;;4935751;29;20059;-78
2021/11/01 04:34:36;;;;;;;35.00;25.67;;;;;;;;;;4936023;29;20063;-78
2021/11/01 04:37:43;;;;;;;34.92;25.23;;;;;;;;;;4936004;29;20050;-77
2021/11/01 04:41:08;;;;;;;34.30;25.20;;;;;;;;;;4935832;29;20160;-78
2021/11/01 04:54:19;;;;;;;31.83;23.58;;;;;;;;;;4935390;29;20063;-77
2021/11/01 04:57:25;;;;;;;35.40;25.27;;;;;;;;;;4934539;29;20050;-77
2021/11/01 05:00:30;;;;;;;34.72;24.48;;;;;;;;;;4935530;29;20388;-77
2021/11/01 05:03:38;;;;;;;34.47;25.13;;;;;;;;;;4935340;29;20046;-77
2021/11/01 05:06:49;;;;;;;33.67;24.45;;;;;;;;;;4935330;29;20424;-77
2021/11/01 05:13:04;;;;;;;30.63;23.08;;;;;;;;;;4935109;29;20432;-77
2021/11/01 05:16:18;;;;;;;32.03;23.77;;;;;;;;;;4935355;29;20411;-77
2021/11/01 05:19:29;;;;;;;31.52;24.05;;;;;;;;;;4934466;29;20400;-77
2021/11/01 05:23:38;;;;;;;35.30;24.40;;;;;;;;;;4934949;29;20047;-78
2021/11/01 05:26:11;;;;;;;32.75;23.55;;;;;;;;;;4934673;29;20063;-77
2021/11/01 05:29:16;;;;;;;32.95;23.73;;;;;;;;;;4934731;29;20054;-77
2021/11/01 05:32:27;;;;;;;33.35;25.98;;;;;;;;;;4934888;29;20062;-77
2021/11/01 05:35:32;;;;;;;34.88;27.00;;;;;;;;;;4934660;29;20559;-77
2021/11/01 05:38:36;;;;;;;43.55;31.38;;;;;;;;;;4934785;29;20325;-77
2021/11/01 05:41:41;;;;;;;46.47;31.92;;;;;;;;;;4934819;29;20428;-77
2021/11/01 05:44:45;;;;;;;37.35;28.85;;;;;;;;;;4934507;29;20043;-77
2021/11/01 05:47:58;;;;;;;37.55;27.52;;;;;;;;;;4934759;29;20047;-78
2021/11/01 05:51:07;;;;;;;34.17;24.90;;;;;;;;;;4934688;29;20444;-77
2021/11/01 05:54:17;;;;;;;33.30;24.88;;;;;;;;;;4934715;29;20059;-77
2021/11/01 06:01:37;;;;;;;33.35;25.42;;;;;;;;;;4934486;29;20046;-77
2021/11/01 06:04:29;;;;;;;31.67;23.60;;;;;;;;;;4937365;29;20511;-77
2021/11/01 06:07:55;;;;;;;29.85;23.95;;;;;;;;;;4934320;29;20046;-77
2021/11/01 06:14:25;;;;;;;32.08;24.42;;;;;;;;;;4934418;29;20062;-77
2021/11/01 06:17:31;;;;;;;36.47;25.42;;;;;;;;;;4934175;29;20050;-77
2021/11/01 06:20:36;;;;;;;32.15;25.30;;;;;;;;;;4934091;29;20054;-77
2021/11/01 06:23:40;;;;;;;30.52;24.58;;;;;;;;;;4933864;29;20047;-77
2021/11/01 06:26:45;;;;;;;30.88;25.33;;;;;;;;;;4933722;29;20050;-77
2021/11/01 06:30:09;;;;;;;31.40;23.63;;;;;;;;;;4933762;29;20047;-77
2021/11/01 06:40:24;;;;;;;33.03;23.92;;;;;;;;;;4933823;29;20059;-77
2021/11/01 07:16:07;;;;;;;28.02;20.20;;;;;;;;;;4933303;29;20047;-67
2021/11/01 08:23:32;;;;;;;21.48;14.73;;;;;;;;;;4936037;29;20051;-65
2021/11/01 09:06:27;;;;;;;8.68;6.13;;;;;;;;;;4935409;29;20051;-66
2021/11/01 09:25:53;;;;;;;8.10;4.72;;;;;;;;;;4934864;29;20040;-67
2021/11/01 09:29:17;;;;;;;6.50;4.95;;;;;;;;;;4934495;29;20291;-67
2021/11/01 09:35:58;;;;;;;9.02;4.60;;;;;;;;;;4921620;29;20044;-67
2021/11/01 09:39:21;;;;;;;6.32;4.20;;;;;;;;;;4934491;29;20032;-67
2021/11/01 09:42:25;;;;;;;10.32;4.28;;;;;;;;;;4934722;29;20500;-68
2021/11/01 09:45:32;;;;;;;6.18;4.50;;;;;;;;;;4934486;29;20039;-66
2021/11/01 09:48:40;;;;;;;6.43;4.20;;;;;;;;;;4934727;29;20048;-66
2021/11/01 09:51:53;;;;;;;7.75;4.50;;;;;;;;;;4934272;29;20043;-66
2021/11/01 09:55:03;;;;;;;5.95;4.03;;;;;;;;;;4934578;29;20047;-66
2021/11/01 10:01:34;;;;;;;5.57;4.30;;;;;;;;;;4934588;29;20044;-66
2021/11/01 10:04:41;;;;;;;6.43;3.95;;;;;;;;;;4933967;29;20043;-66
2021/11/01 10:07:47;;;;;;;5.22;3.72;;;;;;;;;;4934204;29;20039;-68
2021/11/01 10:10:52;;;;;;;5.40;3.80;;;;;;;;;;4934664;29;20464;-65
2021/11/01 10:13:59;;;;;;;7.57;4.20;;;;;;;;;;4933833;29;20055;-65
2021/11/01 10:20:39;;;;;;;7.47;4.10;;;;;;;;;;4934121;29;20028;-67
2021/11/01 10:23:52;;;;;;;8.93;4.38;;;;;;;;;;4933735;29;20039;-66
2021/11/01 10:26:59;;;;;;;5.63;3.85;;;;;;;;;;4933707;29;20377;-66
2021/11/01 10:30:04;;;;;;;6.22;3.90;;;;;;;;;;4933853;29;20036;-65
2021/11/01 10:33:10;;;;;;;6.28;4.40;;;;;;;;;;4933623;29;20051;-66
2021/11/01 10:36:31;;;;;;;5.75;4.20;;;;;;;;;;4933652;29;20386;-65
2021/11/01 10:39:35;;;;;;;8.02;4.30;;;;;;;;;;4933764;29;20052;-65
2021/11/01 10:42:46;;;;;;;6.82;5.00;;;;;;;;;;4933729;29;20040;-65
2021/11/01 11:12:35;;;;;;;8.82;4.85;;;;;;;;;;4933497;29;20039;-68
2021/11/01 11:15:41;;;;;;;5.15;4.60;;;;;;;;;;4933091;29;20036;-68
2021/11/01 11:42:31;;;;;;;5.72;3.97;;;;;;;;;;4936677;29;20043;-67
2021/11/01 11:49:08;;;;;;;6.63;4.05;;;;;;;;;;4936375;29;20035;-67
2021/11/01 11:52:14;;;;;;;5.07;3.55;;;;;;;;;;4936600;29;20039;-67
2021/11/01 11:55:24;;;;;;;9.45;3.97;;;;;;;;;;4937097;29;20067;-67
2021/11/01 11:58:33;;;;;;;7.53;4.78;;;;;;;;;;4936651;29;20035;-67
2021/11/01 12:01:41;;;;;;;4.93;3.85;;;;;;;;;;4935515;29;20582;-67
2021/11/01 12:04:48;;;;;;;6.40;4.70;;;;;;;;;;4936975;29;20361;-67
2021/11/01 12:08:11;;;;;;;7.10;4.80;;;;;;;;;;4936281;29;20040;-67
2021/11/01 12:17:57;;;;;;;5.53;4.50;;;;;;;;;;4924558;29;20043;-67
2021/11/01 12:21:01;;;;;;;10.98;4.68;;;;;;;;;;4936210;29;20369;-66
2021/11/01 12:24:08;;;;;;;9.07;4.60;;;;;;;;;;4936173;29;20040;-66
2021/11/01 12:27:13;;;;;;;6.95;4.57;;;;;;;;;;4935848;29;20056;-67
2021/11/01 12:30:18;;;;;;;5.68;4.20;;;;;;;;;;4935196;29;20043;-67
2021/11/01 12:33:26;;;;;;;5.75;4.30;;;;;;;;;;4935669;29;20055;-67
2021/11/01 12:36:52;;;;;;;5.90;4.22;;;;;;;;;;4935144;29;20039;-67
2021/11/01 12:40:05;;;;;;;6.32;4.57;;;;;;;;;;4935566;29;20047;-67
2021/11/01 12:43:20;;;;;;;5.00;4.35;;;;;;;;;;4935656;29;20480;-67
2021/11/01 12:59:43;;;;;;;5.55;4.15;;;;;;;;;;4935411;29;20040;-66
2021/11/01 13:02:48;;;;;;;4.38;3.63;;;;;;;;;;4935251;29;20047;-67
2021/11/01 13:06:00;;;;;;;7.82;4.07;;;;;;;;;;4935872;29;20051;-67
2021/11/01 13:09:14;;;;;;;6.57;3.83;;;;;;;;;;4935413;29;20040;-67
2021/11/01 13:12:34;;;;;;;6.53;4.03;;;;;;;;;;4935423;29;20471;-68
2021/11/01 13:17:52;;;;;;;10.32;4.25;;;;;;;;;;4935130;29;20039;-66
2021/11/01 13:19:05;;;;;;;8.77;3.78;;;;;;;;;;4933841;29;20051;-67
2021/11/01 13:22:17;;;;;;;5.50;3.90;;;;;;;;;;4933791;29;20047;-67
2021/11/01 13:25:28;;;;;;;5.78;3.78;;;;;;;;;;4933654;29;20052;-67
2021/11/01 13:35:29;;;;;;;4.82;3.03;;;;;;;;;;4934624;29;20397;-67
2021/11/01 13:38:34;;;;;;;4.82;3.47;;;;;;;;;;4934775;29;20044;-67
2021/11/01 13:41:46;;;;;;;5.55;3.83;;;;;;;;;;4934585;29;20043;-67
2021/11/01 13:44:51;;;;;;;5.10;3.50;;;;;;;;;;4934940;29;20051;-67
2021/11/01 13:47:58;;;;;;;5.88;3.60;;;;;;;;;;4934271;29;20039;-67
2021/11/01 13:51:08;;;;;;;3.80;3.20;;;;;;;;;;4934409;29;20508;-67
2021/11/01 13:57:27;;;;;;;3.95;3.03;;;;;;;;;;4934344;29;20036;-67
2021/11/01 14:14:05;;;;;;;6.72;4.10;;;;;;;;;;4934004;29;20051;-67
2021/11/01 14:20:33;;;;;;;5.95;4.43;;;;;;;;;;4933002;29;20051;-67
2021/11/01 14:27:18;;;;;;;5.25;4.47;;;;;;;;;;4933817;29;19925;-67
2021/11/01 15:31:01;;;;;;;9.77;7.50;;;;;;;;;;4937278;29;20283;-67
2021/11/01 16:17:31;;;;;;;9.73;6.13;;;;;;;;;;4936293;29;20044;-77
2021/11/01 16:20:35;;;;;;;7.72;5.25;;;;;;;;;;4936028;29;20044;-73
2021/11/01 16:23:41;;;;;;;4.18;3.45;;;;;;;;;;4935826;29;20039;-78
2021/11/01 16:26:45;;;;;;;6.18;3.13;;;;;;;;;;4935644;29;20389;-74
2021/11/01 16:30:11;;;;;;;6.22;3.60;;;;;;;;;;4935881;29;20075;-76
2021/11/01 16:33:16;;;;;;;5.65;3.53;;;;;;;;;;4935508;29;20035;-76
2021/11/01 16:36:40;;;;;;;8.02;3.97;;;;;;;;;;4935767;29;20044;-77
2021/11/01 16:39:47;;;;;;;6.57;4.40;;;;;;;;;;4935479;29;20275;-78
2021/11/01 16:42:52;;;;;;;6.68;3.90;;;;;;;;;;4935588;29;20043;-76
2021/11/01 16:45:56;;;;;;;4.68;3.50;;;;;;;;;;4935967;29;20044;-77
2021/11/01 16:49:01;;;;;;;4.45;3.22;;;;;;;;;;4935796;29;20043;-75
2021/11/01 16:52:17;;;;;;;4.68;3.47;;;;;;;;;;4935354;29;20043;-75
2021/11/01 16:55:29;;;;;;;4.93;3.47;;;;;;;;;;4934719;29;20499;-75
2021/11/01 16:58:43;;;;;;;5.55;3.65;;;;;;;;;;4935273;29;20044;-75
2021/11/01 17:01:52;;;;;;;5.93;3.80;;;;;;;;;;4935629;29;20043;-76
2021/11/01 17:25:00;;;;;;;4.07;2.88;;;;;;;;;;4934770;29;20346;-75
2021/11/01 17:38:03;;;;;;;5.93;3.38;;;;;;;;;;4934477;29;20039;-75
2021/11/01 18:40:00;;;;;;;6.75;2.95;;;;;;;;;;4933368;29;20040;-77
2021/11/01 18:53:15;;;;;;;6.80;3.22;;;;;;;;;;4933696;29;20039;-76
2021/11/01 18:56:26;;;;;;;8.68;3.42;;;;;;;;;;4932639;29;20048;-76
2021/11/01 18:59:36;;;;;;;4.60;3.47;;;;;;;;;;4933550;29;20040;-76
2021/11/01 19:02:46;;;;;;;3.95;2.80;;;;;;;;;;4933647;29;20039;-76
2021/11/01 20:08:06;;;;;;;5.20;2.53;;;;;;;;;;4936212;29;20039;-78
2021/11/01 21:25:08;;;;;;;6.95;2.92;;;;;;;;;;4934914;29;20040;-77
2021/11/01 21:28:13;;;;;;;4.90;2.40;;;;;;;;;;4934181;29;20370;-76
2021/11/01 21:31:19;;;;;;;5.03;2.65;;;;;;;;;;4934881;29;20044;-76
2021/11/01 21:37:37;;;;;;;5.80;3.10;;;;;;;;;;4934650;29;20035;-78
2021/11/01 21:40:46;;;;;;;4.97;3.05;;;;;;;;;;4934589;29;20162;-77
2021/11/01 21:43:52;;;;;;;6.25;3.03;;;;;;;;;;4934779;29;20036;-77
2021/11/01 21:46:57;;;;;;;4.43;2.70;;;;;;;;;;4934519;29;20043;-75
2021/11/01 21:50:03;;;;;;;3.97;3.00;;;;;;;;;;4934587;29;20048;-74
2021/11/01 21:53:08;;;;;;;7.55;3.08;;;;;;;;;;4934553;29;20032;-75
2021/11/01 21:56:14;;;;;;;2.83;2.55;;;;;;;;;;4934476;29;20484;-76
2021/11/01 21:59:44;;;;;;;4.93;2.72;;;;;;;;;;4934205;29;20040;-76
2021/11/01 22:10:00;;;;;;;4.60;2.72;;;;;;;;;;4934655;29;20039;-75
2021/11/01 22:20:13;;;;;;;2.50;2.05;;;;;;;;;;4917099;29;20032;-76
2021/11/01 22:56:32;;;;;;;3.53;1.00;;;;;;;;;;4933899;29;20048;-75
2021/11/01 22:59:38;;;;;;;1.98;0.88;;;;;;;;;;4932843;29;20035;-76
2021/11/01 23:02:42;;;;;;;2.47;1.00;;;;;;;;;;4934058;29;20032;-75
2021/11/01 23:32:40;;;;;;;3.78;1.00;;;;;;;;;;4922735;29;20031;-76
2021/11/01 23:35:44;;;;;;;2.72;1.05;;;;;;;;;;4937172;29;20048;-76
2021/11/01 23:38:48;;;;;;;2.90;1.00;;;;;;;;;;4937306;29;20031;-75
2021/11/01 23:41:52;;;;;;;3.08;0.80;;;;;;;;;;4937377;29;20048;-75
2021/11/01 23:44:57;;;;;;;2.55;1.20;;;;;;;;;;4937184;29;20032;-75
2021/11/01 23:48:02;;;;;;;4.15;1.40;;;;;;;;;;4937220;29;20043;-74
2021/11/01 23:51:09;;;;;;;4.78;1.20;;;;;;;;;;4937192;29;20043;-74
2021/11/01 23:54:25;;;;;;;2.13;1.13;;;;;;;;;;4936827;29;20063;-75
2021/11/01 23:57:30;;;;;;;2.05;0.75;;;;;;;;;;4936913;29;20039;-74
